Coupar Angus, United Kingdom
Current Conditions -  °F | °C
As of 8:50 PM on Thursday 27 Nov 2014 (Local Time) from EGPN Reporting Station
Broken Clouds Broken Clouds  
Wind Chill: 50°   Ceiling: 700
Heat Index: 50°   Visibility: 6mi
Dew Point: 50°   Wind: 10mph
Humidity: 100%   Direction: 100°E
Pressure: 29.62"   Gusts: NA
Location:  56.55°N, 3.27°W
Report Text: EGPN 272050Z 10009KT 9999 BKN007 BKN024 10/10 Q1003
Loading
Personal Weather Stations






























Interactive Weather Map New forecast layout! Learn more

10-Day Weather Forecast

Advertisements
Track Severe Weather on mobile